Cielo Di Casablanca — CNA4477 — position and weather

sailwx.info

Track history (hours):
 
Tides and Currents Weather Stations Pressure Air Temp Water Temp Dewpoint Dewpoint Depression Visibility Wind Speed Wind Dir Waves Ship Positions

Cielo Di Casablanca

Last reported at 2017-Dec-04 10:03 UTC. Time now 2017-Dec-11 02:34 UTC.
Position N 35°58' W 005°36'.

Length 134 m; draft 7.7 m.

Type: Ship (hazmat cat A). MMSI: 242559000.

Date/timePositionNaut miles runAvg speedWind from/ knotsBaromVisibWave heightAir tempDewpointWater temp
2017-Dec-04 10:03N 35°58' W 005°36'312.5
2017-Dec-04 09:47N 35°58' W 005°32'312.3
2017-Dec-04 09:30N 35°59' W 005°28'9 2.7
2017-Dec-04 06:18N 36°08' W 005°25'0 0.0
2017-Dec-04 06:00N 36°08' W 005°25'0 0.0
2017-Dec-04 05:21N 36°08' W 005°25'0 0.0
2017-Dec-04 05:00N 36°08' W 005°25'0 0.0
2017-Dec-04 04:15N 36°08' W 005°25'0 0.0
2017-Dec-04 03:57N 36°08' W 005°25'0 0.0
2017-Dec-04 03:30N 36°08' W 005°25'0 0.0
2017-Dec-04 03:00N 36°08' W 005°25'0 0.0
2017-Dec-04 02:27N 36°08' W 005°25'0 0.0
2017-Dec-04 01:45N 36°08' W 005°25'0 0.0
2017-Dec-04 01:24N 36°08' W 005°25'0 0.0
2017-Dec-04 00:51N 36°08' W 005°25'1 1.9
2017-Dec-04 00:30N 36°07' W 005°25'1 1.3
2017-Dec-03 23:53N 36°06' W 005°25'0 0.0
2017-Dec-03 23:29N 36°06' W 005°25'0 0.0
2017-Dec-03 22:56N 36°06' W 005°25'0 0.1
2017-Dec-03 22:29N 36°06' W 005°25'0 0.0
2017-Dec-03 21:59N 36°06' W 005°25'0 0.0
2017-Dec-03 21:26N 36°06' W 005°25'0 0.0
2017-Dec-03 20:53N 36°06' W 005°25'0 0.1
2017-Dec-03 20:20N 36°06' W 005°25'0 0.0
2017-Dec-03 18:53N 36°06' W 005°25'0 0.0
2017-Dec-03 18:26N 36°06' W 005°25'0 0.0
2017-Dec-03 14:53N 36°06' W 005°25'0 0.1
2017-Dec-03 14:26N 36°06' W 005°25'0 0.1
2017-Dec-03 13:56N 36°06' W 005°25'0 0.0
2017-Dec-03 08:32N 36°06' W 005°25'0 0.1
2017-Dec-03 08:17N 36°06' W 005°25'0 0.0
2017-Dec-03 07:53N 36°06' W 005°25'0 0.0
2017-Dec-03 05:20N 36°06' W 005°25'0 0.1
2017-Dec-03 04:53N 36°06' W 005°25'0 0.0
2017-Dec-03 04:23N 36°06' W 005°25'0 0.1
2017-Dec-03 02:41N 36°06' W 005°25'1 3.3
2017-Dec-03 02:26N 36°05' W 005°24'3 6.8
2017-Dec-03 02:00N 36°03' W 005°22'1 1.7
2017-Dec-03 01:28N 36°03' W 005°21'1 2.7
2017-Dec-03 00:59N 36°02' W 005°22'1 2.3
2017-Dec-03 00:30N 36°04' W 005°22'0 0.3
2017-Dec-03 00:00N 36°04' W 005°22'2 3.0
2017-Dec-02 23:30N 36°02' W 005°23'510.3
2017-Dec-02 23:00N 35°58' W 005°26'6 0.2
2017-Dec-01 18:43N 35°57' W 005°33'2 8.2
2017-Dec-01 18:30N 35°58' W 005°31'4 8.1
2017-Dec-01 18:00N 35°59' W 005°26'4 7.1
2017-Dec-01 17:30N 36°00' W 005°22'4 7.2
2017-Dec-01 17:00N 36°00' W 005°18'8 0.4
2017-Nov-30 18:46N 35°55' W 005°10'413.7
2017-Nov-30 18:26N 35°59' W 005°13'613.2
2017-Nov-30 17:59N 36°03' W 005°19'3 5.8
2017-Nov-30 17:30N 36°04' W 005°22'2 4.6
2017-Nov-30 17:00N 36°03' W 005°20'4 7.7
2017-Nov-30 16:30N 36°01' W 005°15'11 0.6
2017-Nov-29 21:38N 35°52' W 005°09'413.6
2017-Nov-29 21:22N 35°55' W 005°10'514.3
2017-Nov-29 21:01N 35°57' W 005°16'714.5
2017-Nov-29 20:31N 35°58' W 005°25'26611.8
2017-Nov-28 21:53N 32°52' W 009°17'411.6
2017-Nov-28 21:30N 32°48' W 009°19'811.7
2017-Nov-28 20:48N 32°41' W 009°24'511.7
2017-Nov-28 20:24N 32°37' W 009°27'611.6
2017-Nov-28 19:55N 32°32' W 009°30'6412.0
2017-Nov-28 14:34N 31°34' W 010°02'112.2
2017-Nov-28 14:30N 31°33' W 010°02'  
2017-Nov-24 16:04N 34°58' W 006°41'212.2
2017-Nov-24 15:55N 34°59' W 006°39'512.1
2017-Nov-24 15:30N 35°04' W 006°36'811.4
2017-Nov-24 14:49N 35°10' W 006°31'411.7
2017-Nov-24 14:30N 35°14' W 006°29'611.9
2017-Nov-24 14:01N 35°19' W 006°26'612.0
2017-Nov-24 13:30N 35°24' W 006°22'  
Track history (hours):
 
Tides and Currents Weather Stations Pressure Air Temp Water Temp Dewpoint Dewpoint Depression Visibility Wind Speed Wind Dir Waves Ship Positions

Cielo Di Casablanca

Last reported at 2017-Dec-04 10:03 UTC. Time now 2017-Dec-11 02:34 UTC.
Position N 35°58' W 005°36'.

Length 134 m; draft 7.7 m.

Type: Ship (hazmat cat A). MMSI: 242559000.

Date/timePositionNaut miles runAvg speedWind from/ knotsBaromVisibWave heightAir tempDewpointWater temp
2017-Dec-04 10:03N 35°58' W 005°36'312.5
2017-Dec-04 09:47N 35°58' W 005°32'312.3
2017-Dec-04 09:30N 35°59' W 005°28'9 2.7
2017-Dec-04 06:18N 36°08' W 005°25'0 0.0
2017-Dec-04 06:00N 36°08' W 005°25'0 0.0
2017-Dec-04 05:21N 36°08' W 005°25'0 0.0
2017-Dec-04 05:00N 36°08' W 005°25'0 0.0
2017-Dec-04 04:15N 36°08' W 005°25'0 0.0
2017-Dec-04 03:57N 36°08' W 005°25'0 0.0
2017-Dec-04 03:30N 36°08' W 005°25'0 0.0
2017-Dec-04 03:00N 36°08' W 005°25'0 0.0
2017-Dec-04 02:27N 36°08' W 005°25'0 0.0
2017-Dec-04 01:45N 36°08' W 005°25'0 0.0
2017-Dec-04 01:24N 36°08' W 005°25'0 0.0
2017-Dec-04 00:51N 36°08' W 005°25'1 1.9
2017-Dec-04 00:30N 36°07' W 005°25'1 1.3
2017-Dec-03 23:53N 36°06' W 005°25'0 0.0
2017-Dec-03 23:29N 36°06' W 005°25'0 0.0
2017-Dec-03 22:56N 36°06' W 005°25'0 0.1
2017-Dec-03 22:29N 36°06' W 005°25'0 0.0
2017-Dec-03 21:59N 36°06' W 005°25'0 0.0
2017-Dec-03 21:26N 36°06' W 005°25'0 0.0
2017-Dec-03 20:53N 36°06' W 005°25'0 0.1
2017-Dec-03 20:20N 36°06' W 005°25'0 0.0
2017-Dec-03 18:53N 36°06' W 005°25'0 0.0
2017-Dec-03 18:26N 36°06' W 005°25'0 0.0
2017-Dec-03 14:53N 36°06' W 005°25'0 0.1
2017-Dec-03 14:26N 36°06' W 005°25'0 0.1
2017-Dec-03 13:56N 36°06' W 005°25'0 0.0
2017-Dec-03 08:32N 36°06' W 005°25'0 0.1
2017-Dec-03 08:17N 36°06' W 005°25'0 0.0
2017-Dec-03 07:53N 36°06' W 005°25'0 0.0
2017-Dec-03 05:20N 36°06' W 005°25'0 0.1
2017-Dec-03 04:53N 36°06' W 005°25'0 0.0
2017-Dec-03 04:23N 36°06' W 005°25'0 0.1
2017-Dec-03 02:41N 36°06' W 005°25'1 3.3
2017-Dec-03 02:26N 36°05' W 005°24'3 6.8
2017-Dec-03 02:00N 36°03' W 005°22'1 1.7
2017-Dec-03 01:28N 36°03' W 005°21'1 2.7
2017-Dec-03 00:59N 36°02' W 005°22'1 2.3
2017-Dec-03 00:30N 36°04' W 005°22'0 0.3
2017-Dec-03 00:00N 36°04' W 005°22'2 3.0
2017-Dec-02 23:30N 36°02' W 005°23'510.3
2017-Dec-02 23:00N 35°58' W 005°26'6 0.2
2017-Dec-01 18:43N 35°57' W 005°33'2 8.2
2017-Dec-01 18:30N 35°58' W 005°31'4 8.1
2017-Dec-01 18:00N 35°59' W 005°26'4 7.1
2017-Dec-01 17:30N 36°00' W 005°22'4 7.2
2017-Dec-01 17:00N 36°00' W 005°18'8 0.4
2017-Nov-30 18:46N 35°55' W 005°10'413.7
2017-Nov-30 18:26N 35°59' W 005°13'613.2
2017-Nov-30 17:59N 36°03' W 005°19'3 5.8
2017-Nov-30 17:30N 36°04' W 005°22'2 4.6
2017-Nov-30 17:00N 36°03' W 005°20'4 7.7
2017-Nov-30 16:30N 36°01' W 005°15'11 0.6
2017-Nov-29 21:38N 35°52' W 005°09'413.6
2017-Nov-29 21:22N 35°55' W 005°10'514.3
2017-Nov-29 21:01N 35°57' W 005°16'714.5
2017-Nov-29 20:31N 35°58' W 005°25'26611.8
2017-Nov-28 21:53N 32°52' W 009°17'411.6
2017-Nov-28 21:30N 32°48' W 009°19'811.7
2017-Nov-28 20:48N 32°41' W 009°24'511.7
2017-Nov-28 20:24N 32°37' W 009°27'611.6
2017-Nov-28 19:55N 32°32' W 009°30'6412.0
2017-Nov-28 14:34N 31°34' W 010°02'112.2
2017-Nov-28 14:30N 31°33' W 010°02'  
2017-Nov-24 16:04N 34°58' W 006°41'212.2
2017-Nov-24 15:55N 34°59' W 006°39'512.1
2017-Nov-24 15:30N 35°04' W 006°36'811.4
2017-Nov-24 14:49N 35°10' W 006°31'411.7
2017-Nov-24 14:30N 35°14' W 006°29'611.9
2017-Nov-24 14:01N 35°19' W 006°26'612.0
2017-Nov-24 13:30N 35°24' W 006°22'  

Dump ship's entire track history